createdAt,value
2022-12-03T00:02:02.870Z,-12.70
2022-12-03T00:04:36.160Z,-12.74
2022-12-03T00:07:09.346Z,-12.75
2022-12-03T00:09:42.882Z,-12.79
2022-12-03T00:12:16.562Z,-12.81
2022-12-03T00:14:50.268Z,-12.82
2022-12-03T00:17:23.673Z,-12.81
2022-12-03T00:19:57.190Z,-12.84
2022-12-03T00:22:30.402Z,-12.86
2022-12-03T00:25:03.997Z,-12.82
2022-12-03T00:27:37.622Z,-12.82
2022-12-03T00:30:14.009Z,-12.83
2022-12-03T00:32:47.350Z,-12.86
2022-12-03T00:35:20.887Z,-12.88
2022-12-03T00:37:54.806Z,-12.91
2022-12-03T00:40:28.127Z,-12.96
2022-12-03T00:43:01.464Z,-12.93
2022-12-03T00:45:34.982Z,-12.96
2022-12-03T00:48:08.994Z,-12.93
2022-12-03T00:50:42.098Z,-12.91
2022-12-03T00:53:15.785Z,-12.98
2022-12-03T00:55:50.789Z,-13.01
2022-12-03T00:58:24.087Z,-13.03
2022-12-03T01:00:57.801Z,-13.02
2022-12-03T01:03:35.171Z,-13.09
2022-12-03T01:06:11.119Z,-13.12
2022-12-03T01:08:44.672Z,-13.13
2022-12-03T01:11:36.255Z,-13.16
2022-12-03T01:14:11.984Z,-13.15
2022-12-03T01:16:46.262Z,-13.24
2022-12-03T01:19:20.417Z,-13.20
2022-12-03T01:21:55.696Z,-13.22
2022-12-03T01:24:29.324Z,-13.22
2022-12-03T01:27:02.634Z,-13.20
2022-12-03T01:29:36.256Z,-13.20
2022-12-03T01:32:20.130Z,-13.18
2022-12-03T01:34:55.572Z,-13.28
2022-12-03T01:37:30.253Z,-13.32
2022-12-03T01:40:03.478Z,-13.32
2022-12-03T01:42:39.642Z,-13.34
2022-12-03T01:45:16.615Z,-13.33
2022-12-03T01:47:50.237Z,-13.36
2022-12-03T01:50:26.558Z,-13.33
2022-12-03T01:53:03.149Z,-13.39
2022-12-03T01:55:36.239Z,-13.45
2022-12-03T01:58:11.927Z,-13.45
2022-12-03T02:00:45.309Z,-13.44
2022-12-03T02:03:22.306Z,-13.41
2022-12-03T02:05:56.958Z,-13.41
2022-12-03T02:08:32.619Z,-13.45
2022-12-03T02:11:08.951Z,-13.46
2022-12-03T02:13:45.493Z,-13.49
2022-12-03T02:16:19.227Z,-13.46
2022-12-03T02:18:53.149Z,-13.45
2022-12-03T02:21:29.742Z,-13.48
2022-12-03T02:24:06.960Z,-13.51
2022-12-03T02:26:41.395Z,-13.52
2022-12-03T02:29:14.800Z,-13.56
2022-12-03T02:31:48.423Z,-13.56
2022-12-03T02:34:39.050Z,-13.58
2022-12-03T02:37:15.672Z,-13.62
2022-12-03T02:39:52.201Z,-13.62
2022-12-03T02:42:38.780Z,-13.63
2022-12-03T02:45:16.579Z,-13.65
2022-12-03T02:47:53.967Z,-13.64
2022-12-03T02:50:29.855Z,-13.67
2022-12-03T02:53:06.085Z,-13.68
2022-12-03T02:55:40.647Z,-13.69
2022-12-03T02:58:15.642Z,-13.71
2022-12-03T03:00:50.449Z,-13.69
2022-12-03T03:03:26.129Z,-13.73
2022-12-03T03:06:00.618Z,-13.72
2022-12-03T03:08:34.803Z,-13.75
2022-12-03T03:11:09.283Z,-13.77
2022-12-03T03:13:43.519Z,-13.77
2022-12-03T03:16:17.447Z,-13.74
2022-12-03T03:18:51.970Z,-13.79
2022-12-03T03:21:25.818Z,-13.73
2022-12-03T03:23:59.304Z,-13.74
2022-12-03T03:26:33.071Z,-13.75
2022-12-03T03:29:07.766Z,-13.75
2022-12-03T03:31:42.605Z,-13.76
2022-12-03T03:34:18.485Z,-13.76
2022-12-03T03:36:52.059Z,-13.77
2022-12-03T03:39:25.666Z,-13.77
2022-12-03T03:42:09.479Z,-13.79
2022-12-03T03:44:48.198Z,-13.78
2022-12-03T03:47:23.415Z,-13.81
2022-12-03T03:50:06.525Z,-13.82
2022-12-03T03:52:42.113Z,-13.86
2022-12-03T03:55:16.356Z,-13.85
2022-12-03T03:57:50.599Z,-13.87
2022-12-03T04:00:24.058Z,-13.87
2022-12-03T04:02:57.728Z,-13.90
2022-12-03T04:05:31.511Z,-13.90
2022-12-03T04:08:05.509Z,-13.96
2022-12-03T04:10:56.676Z,-13.92
2022-12-03T04:13:30.646Z,-13.96
2022-12-03T04:16:04.258Z,-13.95
2022-12-03T04:18:44.407Z,-13.94
2022-12-03T04:21:39.026Z,-14.04
2022-12-03T04:24:14.342Z,-13.99
2022-12-03T04:27:06.770Z,-14.08
2022-12-03T04:29:42.693Z,-14.09
2022-12-03T04:32:34.245Z,-14.13
2022-12-03T04:35:28.422Z,-14.09
2022-12-03T04:38:03.303Z,-14.13
2022-12-03T04:40:54.353Z,-14.18
2022-12-03T04:43:30.835Z,-14.14
2022-12-03T04:46:05.615Z,-14.16
2022-12-03T04:48:39.637Z,-14.15
2022-12-03T04:51:13.533Z,-14.19
2022-12-03T04:53:47.028Z,-14.15
2022-12-03T04:56:21.281Z,-14.19
2022-12-03T04:58:55.272Z,-14.16
2022-12-03T05:01:29.580Z,-14.14
2022-12-03T05:04:07.347Z,-14.18
2022-12-03T05:06:41.079Z,-14.18
2022-12-03T05:09:14.855Z,-14.17
2022-12-03T05:11:49.368Z,-14.22
2022-12-03T05:14:23.128Z,-14.22
2022-12-03T05:16:56.528Z,-14.21
2022-12-03T05:19:49.532Z,-14.22
2022-12-03T05:22:23.064Z,-14.19
2022-12-03T05:24:56.731Z,-14.19
2022-12-03T05:27:30.783Z,-14.19
2022-12-03T05:30:04.275Z,-14.17
2022-12-03T05:32:38.618Z,-14.15
2022-12-03T05:35:14.351Z,-14.07
2022-12-03T05:37:48.107Z,-14.11
2022-12-03T05:40:23.459Z,-14.15
2022-12-03T05:42:57.771Z,-14.18
2022-12-03T05:45:33.220Z,-14.12
2022-12-03T05:48:08.582Z,-14.09
2022-12-03T05:50:44.385Z,-14.09
2022-12-03T05:53:21.746Z,-14.09
2022-12-03T05:55:54.881Z,-14.02
2022-12-03T05:58:28.151Z,-13.98
2022-12-03T06:01:01.651Z,-13.89
2022-12-03T06:03:35.178Z,-13.88
2022-12-03T06:06:09.103Z,-13.88
2022-12-03T06:08:42.209Z,-13.87
2022-12-03T06:11:15.624Z,-13.80
2022-12-03T06:13:48.970Z,-13.75
2022-12-03T06:16:22.289Z,-13.66
2022-12-03T06:18:55.964Z,-13.59
2022-12-03T06:21:29.347Z,-13.51
2022-12-03T06:24:02.448Z,-13.45
2022-12-03T06:26:35.494Z,-13.36
2022-12-03T06:29:10.446Z,-13.32
2022-12-03T06:31:43.913Z,-13.24
2022-12-03T06:34:17.598Z,-13.19
2022-12-03T06:36:51.061Z,-13.11
2022-12-03T06:39:24.315Z,-13.01
2022-12-03T06:41:57.934Z,-12.96
2022-12-03T06:44:31.124Z,-12.86
2022-12-03T06:47:04.548Z,-12.83
2022-12-03T06:49:37.853Z,-12.76
2022-12-03T06:52:11.440Z,-12.73
2022-12-03T06:54:44.795Z,-12.70
2022-12-03T06:57:19.201Z,-12.64
2022-12-03T06:59:53.175Z,-12.55
2022-12-03T07:02:26.970Z,-12.46
2022-12-03T07:05:00.764Z,-12.35
2022-12-03T07:07:34.120Z,-12.23
2022-12-03T07:10:09.239Z,-12.09
2022-12-03T07:12:43.535Z,-11.87
2022-12-03T07:15:17.436Z,-11.63
2022-12-03T07:17:51.253Z,-11.43
2022-12-03T07:20:24.454Z,-11.38
2022-12-03T07:22:58.078Z,-11.28
2022-12-03T07:25:31.242Z,-11.15
2022-12-03T07:28:04.503Z,-10.97
2022-12-03T07:30:37.646Z,-10.75
2022-12-03T07:33:11.356Z,-10.51
2022-12-03T07:35:45.370Z,-10.36
2022-12-03T07:38:20.665Z,-10.17
2022-12-03T07:40:53.810Z,-10.06
2022-12-03T07:43:27.258Z,-9.92
2022-12-03T07:46:00.911Z,-9.86
2022-12-03T07:48:34.347Z,-9.85
2022-12-03T07:51:09.582Z,-9.79
2022-12-03T07:53:43.198Z,-9.61
2022-12-03T07:56:16.611Z,-9.63
2022-12-03T07:58:50.086Z,-9.50
2022-12-03T08:01:23.936Z,-9.32
2022-12-03T08:03:57.203Z,-9.04
2022-12-03T08:06:31.077Z,-8.64
2022-12-03T08:09:04.509Z,-8.34
2022-12-03T08:11:38.502Z,-8.06
2022-12-03T08:14:14.603Z,-7.63
2022-12-03T08:16:49.326Z,-7.18
2022-12-03T08:19:22.896Z,-6.88
2022-12-03T08:22:01.044Z,-6.53
2022-12-03T08:24:31.657Z,-6.48
2022-12-03T08:27:06.744Z,-6.60
2022-12-03T08:29:39.934Z,-6.45
2022-12-03T08:32:14.153Z,-6.31
2022-12-03T08:34:47.698Z,-5.94
2022-12-03T08:37:22.213Z,-5.82
2022-12-03T08:39:56.915Z,-5.98
2022-12-03T08:42:43.903Z,-6.11
2022-12-03T08:45:42.766Z,-6.25
2022-12-03T08:48:33.442Z,-6.21
2022-12-03T08:51:14.957Z,-6.35
2022-12-03T08:53:50.294Z,-6.12
2022-12-03T08:56:25.711Z,-5.97
2022-12-03T08:59:02.170Z,-5.84
2022-12-03T09:01:40.586Z,-6.05
2022-12-03T09:04:27.762Z,-6.41
2022-12-03T09:07:01.064Z,-6.49
2022-12-03T09:09:34.798Z,-6.68
2022-12-03T09:12:09.855Z,-6.82
2022-12-03T09:14:42.949Z,-6.68
2022-12-03T09:17:16.184Z,-6.68
2022-12-03T09:19:49.624Z,-7.03
2022-12-03T09:22:22.641Z,-7.28
2022-12-03T09:24:56.470Z,-7.41
2022-12-03T09:27:29.846Z,-7.34
2022-12-03T09:30:03.186Z,-7.43
2022-12-03T09:32:36.735Z,-7.39
2022-12-03T09:35:12.922Z,-7.30
2022-12-03T09:37:46.065Z,-7.23
2022-12-03T09:40:19.835Z,-7.06
2022-12-03T09:42:54.200Z,-6.83
2022-12-03T09:45:27.870Z,-6.83
2022-12-03T09:48:03.758Z,-6.82
2022-12-03T09:50:40.036Z,-6.79
2022-12-03T09:53:16.501Z,-6.73
2022-12-03T09:55:50.493Z,-6.72
2022-12-03T09:58:24.127Z,-6.66
2022-12-03T10:00:57.952Z,-6.59
2022-12-03T10:03:33.396Z,-6.75
2022-12-03T10:06:07.133Z,-6.86
2022-12-03T10:08:40.660Z,-6.82
2022-12-03T10:11:13.938Z,-7.00
2022-12-03T10:13:47.791Z,-7.12
2022-12-03T10:16:22.504Z,-7.11
2022-12-03T10:18:58.290Z,-7.22
2022-12-03T10:21:35.552Z,-7.28
2022-12-03T10:24:23.339Z,-7.45
2022-12-03T10:26:59.019Z,-7.50
2022-12-03T10:29:34.831Z,-7.46
2022-12-03T10:32:11.903Z,-7.47
2022-12-03T10:34:45.937Z,-7.40
2022-12-03T10:37:20.758Z,-7.33
2022-12-03T10:40:00.256Z,-7.35
2022-12-03T10:42:35.788Z,-7.33
2022-12-03T10:45:21.277Z,-7.42
2022-12-03T10:48:09.543Z,-7.38
2022-12-03T10:50:51.848Z,-7.45
2022-12-03T10:53:27.802Z,-7.40
2022-12-03T10:56:04.234Z,-7.41
2022-12-03T10:58:40.812Z,-7.38
2022-12-03T11:01:19.605Z,-7.40
2022-12-03T11:03:55.928Z,-7.35
2022-12-03T11:06:34.729Z,-7.40
2022-12-03T11:09:15.501Z,-7.37
2022-12-03T11:11:49.549Z,-7.36
2022-12-03T11:15:11.318Z,-7.42
2022-12-03T11:17:52.783Z,-7.45
2022-12-03T11:21:11.365Z,-7.58
2022-12-03T11:24:32.884Z,-7.61
2022-12-03T11:30:10.610Z,-7.53
2022-12-03T11:33:35.503Z,-7.65
2022-12-03T11:36:36.367Z,-7.66
2022-12-03T11:38:58.524Z,-7.78
2022-12-03T11:42:06.156Z,-7.87
2022-12-03T11:44:39.826Z,-7.93
2022-12-03T11:47:18.192Z,-8.01
2022-12-03T11:49:52.157Z,-8.04
2022-12-03T11:52:31.544Z,-8.03
2022-12-03T11:55:08.599Z,-8.02
2022-12-03T11:57:44.920Z,-7.99
2022-12-03T12:00:27.191Z,-7.95
2022-12-03T12:03:01.513Z,-7.93
2022-12-03T12:05:36.639Z,-7.95
2022-12-03T12:08:12.919Z,-8.01
2022-12-03T12:10:49.490Z,-8.00
2022-12-03T12:13:54.690Z,-8.02
2022-12-03T12:16:51.899Z,-8.04
2022-12-03T12:19:31.132Z,-8.10
2022-12-03T12:22:39.621Z,-8.12
2022-12-03T12:25:37.221Z,-8.10
2022-12-03T12:28:11.086Z,-8.07
2022-12-03T12:30:44.592Z,-8.07
2022-12-03T12:33:23.481Z,-8.03
2022-12-03T12:35:57.755Z,-7.99
2022-12-03T12:38:31.110Z,-7.98
2022-12-03T12:41:08.812Z,-7.95
2022-12-03T12:43:42.561Z,-7.95
2022-12-03T12:46:46.628Z,-7.97
2022-12-03T12:48:55.210Z,-7.93
2022-12-03T12:51:27.913Z,-7.94
2022-12-03T12:54:01.501Z,-7.91
2022-12-03T12:56:35.064Z,-7.94
2022-12-03T12:59:14.054Z,-7.92
2022-12-03T13:01:48.958Z,-7.94
2022-12-03T13:04:24.135Z,-7.90
2022-12-03T13:06:58.776Z,-7.89
2022-12-03T13:09:34.263Z,-7.86
2022-12-03T13:12:12.397Z,-7.84
2022-12-03T13:14:46.182Z,-7.81
2022-12-03T13:17:23.525Z,-7.76
2022-12-03T13:20:07.262Z,-7.77
2022-12-03T13:22:34.480Z,-7.75
2022-12-03T13:25:32.594Z,-7.71
2022-12-03T13:27:53.656Z,-7.67
2022-12-03T13:30:28.818Z,-7.63
2022-12-03T13:33:03.022Z,-7.67
2022-12-03T13:35:39.482Z,-7.66
2022-12-03T13:38:16.821Z,-7.60
2022-12-03T13:40:54.768Z,-7.56
2022-12-03T13:43:32.110Z,-7.54
2022-12-03T13:46:05.380Z,-7.47
2022-12-03T13:48:38.778Z,-7.54
2022-12-03T13:51:18.047Z,-7.59
2022-12-03T13:53:51.555Z,-7.50
2022-12-03T13:56:28.890Z,-7.52
2022-12-03T13:59:04.523Z,-7.48
2022-12-03T14:01:37.849Z,-7.45
2022-12-03T14:04:11.810Z,-7.47
2022-12-03T14:06:45.302Z,-7.41
2022-12-03T14:09:19.043Z,-7.42
2022-12-03T14:12:09.923Z,-7.36
2022-12-03T14:14:43.519Z,-7.28
2022-12-03T14:17:17.116Z,-7.31
2022-12-03T14:19:50.812Z,-7.31
2022-12-03T14:22:25.524Z,-7.28
2022-12-03T14:24:59.381Z,-7.21
2022-12-03T14:27:34.782Z,-7.20
2022-12-03T14:30:10.706Z,-7.17
2022-12-03T14:32:44.208Z,-7.18
2022-12-03T14:35:17.987Z,-7.17
2022-12-03T14:37:51.473Z,-7.13
2022-12-03T14:40:25.220Z,-7.09
2022-12-03T14:42:58.812Z,-7.08
2022-12-03T14:45:33.372Z,-7.06
2022-12-03T14:48:07.414Z,-7.02
2022-12-03T14:50:40.668Z,-7.04
2022-12-03T14:53:13.915Z,-7.02
2022-12-03T14:55:48.269Z,-7.01
2022-12-03T14:58:21.643Z,-7.01
2022-12-03T15:00:55.154Z,-7.03
2022-12-03T15:03:28.437Z,-6.95
2022-12-03T15:06:01.740Z,-6.91
2022-12-03T15:08:35.050Z,-6.92
2022-12-03T15:11:08.810Z,-6.93
2022-12-03T15:13:51.325Z,-6.90
2022-12-03T15:16:26.176Z,-6.83
2022-12-03T15:18:59.864Z,-6.83
2022-12-03T15:21:54.474Z,-6.78
2022-12-03T15:24:31.073Z,-6.78
2022-12-03T15:27:05.659Z,-6.78
2022-12-03T15:29:39.965Z,-6.75
2022-12-03T15:32:16.478Z,-6.70
2022-12-03T15:34:53.573Z,-6.71
2022-12-03T15:37:28.142Z,-6.74
2022-12-03T15:40:01.666Z,-6.69
2022-12-03T15:42:35.589Z,-6.65
2022-12-03T15:45:15.172Z,-6.67
2022-12-03T15:47:45.674Z,-6.63
2022-12-03T15:50:22.222Z,-6.56
2022-12-03T15:52:57.425Z,-6.56
2022-12-03T15:55:31.018Z,-6.54
2022-12-03T15:58:04.393Z,-6.52
2022-12-03T16:00:38.045Z,-6.52
2022-12-03T16:03:11.409Z,-6.50
2022-12-03T16:05:45.049Z,-6.50
2022-12-03T16:08:18.593Z,-6.50
2022-12-03T16:10:52.395Z,-6.50
2022-12-03T16:13:34.977Z,-6.54
2022-12-03T16:16:10.923Z,-6.51
2022-12-03T16:18:44.266Z,-6.42
2022-12-03T16:21:20.861Z,-6.43
2022-12-03T16:24:10.857Z,-6.49
2022-12-03T16:26:44.605Z,-6.48
2022-12-03T16:29:18.785Z,-6.51
2022-12-03T16:31:52.359Z,-6.56
2022-12-03T16:40:14.735Z,-6.60
2022-12-03T16:42:48.393Z,-6.59
2022-12-03T16:45:55.701Z,-6.64
2022-12-03T16:48:29.439Z,-6.63
2022-12-03T16:51:07.557Z,-6.67
2022-12-03T16:53:40.804Z,-6.63
2022-12-03T16:56:15.526Z,-6.64
2022-12-03T16:58:48.674Z,-6.62
2022-12-03T17:01:23.495Z,-6.59
2022-12-03T17:03:58.951Z,-6.58
2022-12-03T17:06:34.601Z,-6.55
2022-12-03T17:09:08.734Z,-6.53
2022-12-03T17:11:43.730Z,-6.53
2022-12-03T17:14:17.441Z,-6.62
2022-12-03T17:16:50.985Z,-6.71
2022-12-03T17:19:25.000Z,-6.85
2022-12-03T17:21:59.957Z,-6.88
2022-12-03T17:24:33.228Z,-6.88
2022-12-03T17:27:08.069Z,-7.00
2022-12-03T17:29:41.696Z,-6.99
2022-12-03T17:32:15.630Z,-7.05
2022-12-03T17:34:49.073Z,-7.17
2022-12-03T17:37:22.551Z,-7.17
2022-12-03T17:39:56.789Z,-7.18
2022-12-03T17:42:30.631Z,-7.19
2022-12-03T17:45:04.321Z,-7.11
2022-12-03T17:47:37.953Z,-7.30
2022-12-03T17:50:13.273Z,-7.31
2022-12-03T17:52:46.408Z,-7.27
2022-12-03T17:55:28.196Z,-7.30
2022-12-03T17:57:55.509Z,-7.29
2022-12-03T18:00:28.985Z,-7.32
2022-12-03T18:03:02.451Z,-7.26
2022-12-03T18:05:35.819Z,-7.31
2022-12-03T18:08:09.837Z,-7.44
2022-12-03T18:10:43.496Z,-7.46
2022-12-03T18:13:16.817Z,-7.43
2022-12-03T18:15:50.391Z,-7.43
2022-12-03T18:18:23.670Z,-7.47
2022-12-03T18:20:58.986Z,-7.45
2022-12-03T18:23:33.575Z,-7.43
2022-12-03T18:26:07.501Z,-7.44
2022-12-03T18:28:41.284Z,-7.47
2022-12-03T18:31:16.875Z,-7.47
2022-12-03T18:33:50.776Z,-7.50
2022-12-03T18:36:25.774Z,-7.50
2022-12-03T18:39:01.248Z,-7.51
2022-12-03T18:41:36.567Z,-7.55
2022-12-03T18:44:12.197Z,-7.52
2022-12-03T18:46:53.480Z,-7.56
2022-12-03T18:49:22.327Z,-7.56
2022-12-03T18:51:59.204Z,-7.54
2022-12-03T18:54:31.160Z,-7.54
2022-12-03T18:57:04.591Z,-7.53
2022-12-03T18:59:38.483Z,-7.53
2022-12-03T19:02:38.469Z,-7.52
2022-12-03T19:04:51.398Z,-7.47
2022-12-03T19:07:25.145Z,-7.49
2022-12-03T19:09:58.728Z,-7.48
2022-12-03T19:12:32.214Z,-7.45
2022-12-03T19:15:06.776Z,-7.54
2022-12-03T19:17:40.566Z,-7.55
2022-12-03T19:20:15.165Z,-7.53
2022-12-03T19:22:48.866Z,-7.58
2022-12-03T19:25:22.221Z,-7.60
2022-12-03T19:27:57.224Z,-7.61
2022-12-03T19:30:30.709Z,-7.68
2022-12-03T19:33:03.808Z,-7.70
2022-12-03T19:35:41.135Z,-7.67
2022-12-03T19:38:14.525Z,-7.67
2022-12-03T19:40:47.969Z,-7.67
2022-12-03T19:43:21.380Z,-7.61
2022-12-03T19:45:55.251Z,-7.64
2022-12-03T19:48:30.092Z,-7.59
2022-12-03T19:51:26.607Z,-7.53
2022-12-03T19:53:40.688Z,-7.64
2022-12-03T19:56:15.585Z,-7.71
2022-12-03T19:58:49.366Z,-7.67
2022-12-03T20:01:25.435Z,-7.64
2022-12-03T20:04:00.766Z,-7.55
2022-12-03T20:06:37.625Z,-7.60
2022-12-03T20:09:13.704Z,-7.55
2022-12-03T20:11:47.567Z,-7.62
2022-12-03T20:14:22.142Z,-7.60
2022-12-03T20:16:56.292Z,-7.64
2022-12-03T20:19:30.546Z,-7.62
2022-12-03T20:22:04.682Z,-7.62
2022-12-03T20:24:39.108Z,-7.70
2022-12-03T20:27:13.326Z,-7.65
2022-12-03T20:29:50.206Z,-7.68
2022-12-03T20:32:24.878Z,-7.66
2022-12-03T20:34:59.715Z,-7.64
2022-12-03T20:37:34.790Z,-7.60
2022-12-03T20:40:11.569Z,-7.48
2022-12-03T20:42:49.255Z,-7.61
2022-12-03T20:45:23.418Z,-7.64
2022-12-03T20:47:57.519Z,-7.60
2022-12-03T20:50:31.907Z,-7.59
2022-12-03T20:53:23.732Z,-7.56
2022-12-03T20:55:42.395Z,-7.60
2022-12-03T20:58:16.750Z,-7.61
2022-12-03T21:00:51.285Z,-7.56
2022-12-03T21:03:25.603Z,-7.54
2022-12-03T21:06:02.921Z,-7.52
2022-12-03T21:08:41.535Z,-7.54
2022-12-03T21:11:13.418Z,-7.53
2022-12-03T21:13:47.517Z,-7.51
2022-12-03T21:16:45.407Z,-7.53
2022-12-03T21:19:00.121Z,-7.46
2022-12-03T21:21:37.258Z,-7.45
2022-12-03T21:24:12.110Z,-7.45
2022-12-03T21:26:45.670Z,-7.41
2022-12-03T21:29:19.333Z,-7.38
2022-12-03T21:31:52.975Z,-7.41
2022-12-03T21:34:31.314Z,-7.40
2022-12-03T21:37:01.697Z,-7.43
2022-12-03T21:39:35.049Z,-7.47
2022-12-03T21:42:25.971Z,-7.44
2022-12-03T21:44:43.757Z,-7.45
2022-12-03T21:47:20.301Z,-7.43
2022-12-03T21:49:54.116Z,-7.32
2022-12-03T21:52:27.799Z,-7.33
2022-12-03T21:55:01.302Z,-7.31
2022-12-03T21:57:35.926Z,-7.30
2022-12-03T22:00:11.940Z,-7.35
2022-12-03T22:02:45.673Z,-7.34
2022-12-03T22:05:19.715Z,-7.40
2022-12-03T22:07:53.021Z,-7.37
2022-12-03T22:10:26.559Z,-7.41
2022-12-03T22:13:00.084Z,-7.44
2022-12-03T22:15:33.639Z,-7.44
2022-12-03T22:18:07.015Z,-7.40
2022-12-03T22:20:41.764Z,-7.39
2022-12-03T22:23:15.418Z,-7.35
2022-12-03T22:25:48.480Z,-7.28
2022-12-03T22:28:21.914Z,-7.37
2022-12-03T22:30:55.384Z,-7.36
2022-12-03T22:33:29.205Z,-7.36
2022-12-03T22:36:04.639Z,-7.39
2022-12-03T22:38:38.060Z,-7.31
2022-12-03T22:41:13.258Z,-7.36
2022-12-03T22:43:47.766Z,-7.34
2022-12-03T22:46:21.184Z,-7.31
2022-12-03T22:48:54.529Z,-7.28
2022-12-03T22:51:29.192Z,-7.25
2022-12-03T22:54:03.395Z,-7.23
2022-12-03T22:56:37.482Z,-7.22
2022-12-03T22:59:10.813Z,-7.24
2022-12-03T23:01:44.431Z,-7.27
2022-12-03T23:04:18.049Z,-7.25
2022-12-03T23:06:51.515Z,-7.22
2022-12-03T23:09:24.898Z,-7.26
2022-12-03T23:11:58.675Z,-7.28
2022-12-03T23:14:32.429Z,-7.26
2022-12-03T23:17:05.887Z,-7.34
2022-12-03T23:19:39.433Z,-7.34
2022-12-03T23:22:13.019Z,-7.34
2022-12-03T23:24:46.614Z,-7.33
2022-12-03T23:27:20.276Z,-7.30
2022-12-03T23:29:54.367Z,-7.22
2022-12-03T23:32:28.008Z,-7.26
2022-12-03T23:35:01.646Z,-7.33
2022-12-03T23:37:35.512Z,-7.39
2022-12-03T23:40:11.331Z,-7.45
2022-12-03T23:42:44.802Z,-7.48
2022-12-03T23:45:18.579Z,-7.53
2022-12-03T23:47:57.919Z,-7.57
2022-12-03T23:50:27.150Z,-7.59
2022-12-03T23:53:00.764Z,-7.60
2022-12-03T23:55:34.599Z,-7.57
2022-12-03T23:58:08.095Z,-7.57
